AirNav   Phillips 66 Aviation Fuel
 
 876 users online  

P34 Mifflintown Airport
Mifflintown, Pennsylvania, USA

GOING TO MIFFLINTOWN?


FAA INFORMATION EFFECTIVE 29 MARCH 2018

Location

FAA Identifier: P34
Lat/Long: 40-35-56.2000N / 077-24-20.4000W
40-35.936667N / 077-24.340000W
40.5989444 / -77.4056667
(estimated)
Elevation: 545 ft. / 166 m (estimated)
Variation: 11W (2005)
From city: 2 miles N of MIFFLINTOWN, PA
Time zone: UTC -4 (UTC -5 during Standard Time)
Zip code: 17059

Airport Operations

Airport use: Open to the public
Activation date: 02/1977
Control tower: no
ARTCC: NEW YORK CENTER
FSS: WILLIAMSPORT FLIGHT SERVICE STATION
NOTAMs facility: IPT (NOTAM-D service available)
Attendance: UNATNDD
Wind indicator: lighted
Segmented circle: no
Lights: ACTVT LIRL RY 08/26, WIND INDICATOR LGTS - CTAF.
Beacon: white-green (lighted land airport)
ACTIVATE ROTATING BCN - CTAF.

Airport Communications

CTAF/UNICOM: 122.8
WX AWOS-3 at RVL (11 nm NW): 123.85 (717-667-3993)
  • APCH/DEP SVCS PRVDD BY ZNY ARTCC ON 134.8/338.2 (PHILIPSBURG RCAG).

Nearby radio navigation aids

VOR radial/distance  VOR name  Freq  Var
HARr329/23.5HARRISBURG VORTAC112.5010W
SEGr252/26.4SELINSGROVE VOR/DME110.4008W
PSBr136/32.8PHILIPSBURG VORTAC115.5010W
RAVr285/36.8RAVINE VORTAC114.6011W

Airport Services

Parking: hangars
Airframe service: NONE
Powerplant service: NONE

Runway Information

Runway 8/26

Dimensions: 2627 x 50 ft. / 801 x 15 m
Surface: asphalt, in fair condition
Runway edge lights: low intensity
RUNWAY 8  RUNWAY 26
Latitude: 40-35.850000N40-36.023333N
Longitude: 077-24.600000W077-24.080000W
Elevation: 543.5 ft.540.0 ft.
Traffic pattern: leftleft
Displaced threshold: 232 ft.no
Markings: basic, in fair conditionbasic, in fair condition
Touchdown point: yes, no lightsyes, no lights
Obstructions: 16 ft. tree, 278 ft. from runway, 187 ft. right of centerline, 5:1 slope to clear
RY 08 HAS 20-50 FT HIGH TREES 150 FT FM RY END TO 430 FT BEHIND RY END, 60-170 FT LEFT OF CNTRLN; 20-40 FT HIGH STRUCTURES AND TREES 50 FT FM RY END TO 530 FT BEHIND RY END, 90-160 FT RIGHT OF CNTRLN.
29 ft. trees, 713 ft. from runway, 152 ft. right of centerline, 18:1 slope to clear

Airport Ownership and Management from official FAA records

Ownership: Privately-owned
Owner: MIFFLINTOWN AIRPARK LLC
600 AIRPORT DR.
MIFFLINTOWN, PA 17059
Phone 717-436-2725
Manager: BRUCE LISLE
600 AIRPORT DR.
MIFFLINTOWN, PA 17059
Phone 717-436-2725

Airport Operational Statistics

Aircraft based on the field: 20
Single engine airplanes: 19
Multi engine airplanes: 1
    
Aircraft operations: avg 73/week *
79% local general aviation
20% transient general aviation
1% military
* for 12-month period ending 18 September 2017

Instrument Procedures

NOTE: All procedures below are presented as PDF files. If you need a reader for these files, you should download the free Adobe Reader.

NOT FOR NAVIGATION. Please procure official charts for flight.
FAA instrument procedures published for use from 29 March 2018 at 0901Z to 26 April 2018 at 0900Z.

 
IAPs - Instrument Approach Procedures
RNAV (GPS) RWY 26   download (182KB)
 
Departure Procedures
WOBKA TWO (RNAV)   download (112KB)
NOTE: Special Take-Off Minimums/Departure Procedures apply   download (149KB)

Other nearby airports with instrument procedures:

KRVL - Mifflin County Airport (11 nm NW)
02P - Stottle Memorial Heliport (14 nm SW)
KUNV - University Park Airport (25 nm NW)
N96 - Bellefonte Airport (25 nm NW)
N94 - Carlisle Airport (27 nm SE)
 
Loc | Ops | Rwys | IFR | FBO | Links
Com | Nav | Svcs | Stats | Notes

AirNav Hotels Sweepstakes
 
Area around P34 (Mifflintown Airport)
 
Road maps at: MapQuest Bing Google
 
Aerial photo
WARNING: Photo may not be current or correct
Aerial photo of P34 (Mifflintown Airport)
Photo by John F. Faust
Photo taken 18-Mar-2010

Do you have a better or more recent aerial photo of Mifflintown Airport that you would like to share? If so, please send us your photo.

 
Sectional chart

 
Airport distance calculator
Flying to Mifflintown Airport? Find the distance to fly.

From to P34

Sunrise and sunset
Times for 25-Apr-2018
 Local
(UTC-4)
 Zulu
(UTC)
Morning civil twilight05:4809:48
Sunrise06:1710:17
Sunset19:5823:58
Evening civil twilight20:2700:27

Current date and time
Zulu (UTC)  26-Apr-2018 02:42:16
Local (UTC-4)  25-Apr-2018 22:42:16
 
METAR
KUNV 
25nm NW 
260215Z AUTO 27011G15KT 10SM BKN021 OVC027 12/08 A2978 RMK AO2 T01200080
KSEG 
28nm NE 
260153Z AUTO 36003KT 9SM SCT027 BKN036 OVC070 14/12 A2973 RMK AO2 SLP067 T01390122
KCXY 
34nm SE 
260156Z AUTO 28005KT 10SM -RA BKN037 BKN055 OVC110 16/12 A2972 RMK AO2 RAB46 SLP066 P0000 T01610122
KMDT 
38nm SE 
260156Z 31005KT 9SM FEW039 BKN100 OVC150 14/13 A2972 RMK AO2 RAE0057 SLP063 P0000 T01390128
KMUI 
40nm E 
260156Z 25004KT 10SM FEW020 BKN039 OVC085 15/14 A2972 RMK AO2A RAB18E32 SLP067 P0000 T01450140 $
KIPT 
45nm NE 
260154Z 27007KT 10SM BKN037 BKN060 OVC070 14/12 A2972 RMK AO2 RAB07E16 SLP062 P0000 T01390117
KAOO 
45nm SW 
260153Z AUTO 32016G24KT 10SM BKN023 BKN035 12/07 A2981 RMK AO2 SLP096 T01170072
KTHV 
47nm SE 
260153Z AUTO 00000KT 10SM FEW039 BKN095 BKN110 13/13 A2973 RMK AO2 SLP069 T01280128
TAF
KUNV 
25nm NW 
260132Z 2602/2624 30013G18KT P6SM VCSH BKN029 OVC035 FM260400 31013G22KT P6SM OVC023 FM261100 28010G17KT P6SM SCT035
NOTAMs
Click for the latest NOTAMs
NOTAMs are issued by the DoD/FAA and will open in a separate window not controlled by AirNav.

 

 
 

FBO, Fuel Providers, and Aircraft Ground Support

  
 Business Name 
 
 Contact 
 
 Services / Description 
 
Fuel Prices
 
Comments
  
Mifflintown Airpark LLC 717-436-2725
[web site]
Aviation fuel, Aircraft parking (ramp or tiedown), Hangar leasing / sales, Passenger terminal and lounge, Public telephone, Internet access, Restrooms

More info about Mifflintown Airpark LLC
independent
no prices available
 
   2 read write
Update Fuel Prices
 

Would you like to see your business listed on this page?

 If your business provides an interesting product or service to pilots, flight crews, aircraft, or users of the Mifflintown Airport, you should consider listing it here.  To start the listing process, click on the button below
 
Add a business
 

Other Pages about Mifflintown Airport

Update a link
 
Copyright © AirNav, LLC. All rights reserved. Privacy Policy  Contact